Time;durP1;ratioP1;P1;durP2;ratioP2;P2;SDS_P1;SDS_P2;PMS_P1;PMS_P2;Temp;Humidity;BMP_temperature;BMP_pressure;BME280_temperature;BME280_humidity;BME280_pressure;Samples;Min_cycle;Max_cycle;Signal;HPM_P1;HPM_P2
2023/02/14 07:25:35;;;;;;;;;;;;;;;3.88;73.71;100026.78;5404308;23;19931;-63
2023/02/14 07:28:01;;;;;;;;;;;;;;;3.83;73.81;100036.38;4923402;29;19923;-62
2023/02/14 07:30:26;;;;;;;;;;;;;;;3.82;75.17;100030.31;4923530;29;20275;-62
2023/02/14 07:32:51;;;;;;;;;;;;;;;3.85;74.91;100032.84;4932424;29;19946;-60
2023/02/14 07:35:16;;;;;;;;;;;;;;;3.83;74.63;100026.84;4923362;29;19919;-61
2023/02/14 07:37:41;;;;;;;;;;;;;;;3.82;75.27;100032.91;4908472;29;19919;-61
2023/02/14 07:40:07;;;;;;;;;;;;;;;3.84;75.50;100027.69;4915396;29;19915;-61
2023/02/14 07:42:32;;;;;;;;;;;;;;;3.87;75.13;100025.91;4915223;29;19926;-62
2023/02/14 07:44:57;;;;;;;;;;;;;;;3.87;74.63;100020.72;4915432;29;19930;-62
2023/02/14 07:47:23;;;;;;;;;;;;;;;3.91;74.91;100029.31;4911607;29;19923;-61
2023/02/14 07:49:49;;;;;;;;;;;;;;;3.91;74.69;100019.78;4911454;29;20356;-62
2023/02/14 07:52:14;;;;;;;;;;;;;;;3.93;74.52;100023.25;4914666;29;20402;-61
2023/02/14 07:54:39;;;;;;;;;;;;;;;3.87;74.50;100012.94;4914102;29;20387;-62
2023/02/14 07:57:04;;;;;;;;;;;;;;;3.79;74.69;100025.16;4907950;29;19919;-62
2023/02/14 07:59:30;;;;;;;;;;;;;;;3.76;75.12;100015.66;4914504;29;19919;-62
2023/02/14 08:01:55;;;;;;;;;;;;;;;3.72;74.96;100026.97;4911318;29;20014;-62
2023/02/14 08:04:24;;;;;;;;;;;;;;;3.68;75.13;100019.22;4915362;29;20005;-63
2023/02/14 08:06:49;;;;;;;;;;;;;;;3.59;76.50;100014.16;4911128;29;19923;-62
2023/02/14 08:09:23;;;;;;;;;;;;;;;3.57;76.33;100015.00;4909689;29;19942;-61
2023/02/14 08:14:32;;;;;;;;;;;;;;;3.62;76.48;100011.53;4914950;29;19971;-63
2023/02/14 08:16:57;;;;;;;;;;;;;;;3.68;76.42;100008.84;4914460;29;19931;-62
2023/02/14 08:19:22;;;;;;;;;;;;;;;3.70;76.77;100007.09;4917716;29;19920;-62
2023/02/14 08:21:48;;;;;;;;;;;;;;;3.74;76.93;100011.38;4917193;29;19927;-62
2023/02/14 08:24:13;;;;;;;;;;;;;;;3.80;77.04;100006.09;4919162;29;20132;-63
2023/02/14 08:26:38;;;;;;;;;;;;;;;3.83;76.17;100003.47;4915963;29;20421;-63
2023/02/14 08:29:03;;;;;;;;;;;;;;;3.80;75.45;100001.75;4915893;29;20383;-61
2023/02/14 08:31:29;;;;;;;;;;;;;;;3.81;75.16;100013.00;4917949;29;20291;-60
2023/02/14 08:33:54;;;;;;;;;;;;;;;3.79;75.99;100004.41;4918118;29;19946;-59
2023/02/14 08:36:19;;;;;;;;;;;;;;;3.76;75.74;100004.44;4910667;29;19919;-60
2023/02/14 08:38:46;;;;;;;;;;;;;;;3.76;75.60;99999.25;4904335;29;20402;-59
2023/02/14 08:41:12;;;;;;;;;;;;;;;3.81;75.70;100010.41;4918531;29;19934;-61
2023/02/14 08:43:37;;;;;;;;;;;;;;;3.79;75.65;100004.41;4918362;29;19919;-61
2023/02/14 08:46:02;;;;;;;;;;;;;;;3.80;75.35;100006.97;4918417;29;19954;-60
2023/02/14 08:48:28;;;;;;;;;;;;;;;3.83;75.39;100000.88;4917366;29;19919;-60
2023/02/14 08:50:53;;;;;;;;;;;;;;;3.90;75.69;100002.50;4913980;29;20422;-61
2023/02/14 08:53:18;;;;;;;;;;;;;;;3.95;74.91;99999.84;4912398;29;20347;-62
2023/02/14 08:55:43;;;;;;;;;;;;;;;3.93;74.78;99996.44;4919428;29;20426;-61
2023/02/14 08:58:08;;;;;;;;;;;;;;;3.91;75.43;100001.63;4917157;29;19950;-63
2023/02/14 09:00:34;;;;;;;;;;;;;;;3.96;75.56;100001.59;4917064;29;19919;-63
2023/02/14 09:02:59;;;;;;;;;;;;;;;4.01;75.76;99999.78;4917335;29;19922;-62
2023/02/14 09:05:24;;;;;;;;;;;;;;;4.05;75.23;100002.28;4917914;29;19915;-62
2023/02/14 09:07:50;;;;;;;;;;;;;;;4.11;75.36;100005.72;4914295;29;20022;-62
2023/02/14 09:10:17;;;;;;;;;;;;;;;4.10;75.24;100004.00;4917486;29;20006;-62
2023/02/14 09:12:42;;;;;;;;;;;;;;;4.15;75.06;99997.84;4917894;29;20383;-63
2023/02/14 09:15:08;;;;;;;;;;;;;;;4.18;74.57;99996.94;4916454;29;19934;-62
2023/02/14 09:17:33;;;;;;;;;;;;;;;4.22;75.11;99989.09;4911308;29;19919;-62
2023/02/14 09:19:58;;;;;;;;;;;;;;;4.20;74.78;100001.25;4916606;29;20272;-62
2023/02/14 09:22:23;;;;;;;;;;;;;;;4.23;74.73;99996.00;4917688;29;20034;-62
2023/02/14 09:24:49;;;;;;;;;;;;;;;4.28;74.67;99996.78;4917545;29;19955;-62
2023/02/14 09:27:14;;;;;;;;;;;;;;;4.35;74.83;99999.31;4915924;29;20391;-62
2023/02/14 09:29:39;;;;;;;;;;;;;;;4.41;74.54;99992.28;4914462;29;20458;-62
2023/02/14 09:32:04;;;;;;;;;;;;;;;4.48;74.25;99993.06;4917638;29;20434;-63
2023/02/14 09:37:13;;;;;;;;;;;;;;;4.58;74.47;99988.56;4917384;29;19922;-62
2023/02/14 09:39:39;;;;;;;;;;;;;;;4.64;74.05;99985.84;4912775;29;19923;-63
2023/02/14 09:42:13;;;;;;;;;;;;;;;4.72;73.75;99989.22;4917057;29;19922;-62
2023/02/14 09:44:40;;;;;;;;;;;;;;;4.78;73.79;99986.47;4917190;29;20018;-62
2023/02/14 09:47:14;;;;;;;;;;;;;;;4.83;73.19;99989.03;4915210;29;20346;-62
2023/02/14 09:49:40;;;;;;;;;;;;;;;4.89;72.86;99983.72;4912686;29;20358;-62
2023/02/14 09:52:05;;;;;;;;;;;;;;;4.92;73.15;99981.03;4916091;29;20001;-62
2023/02/14 09:54:31;;;;;;;;;;;;;;;4.96;72.74;99977.53;4915558;29;20451;-63
2023/02/14 09:56:57;;;;;;;;;;;;;;;5.02;72.52;99986.94;4916179;29;19915;-62
2023/02/14 09:59:23;;;;;;;;;;;;;;;5.07;72.23;99987.75;4915182;29;19926;-62
2023/02/14 10:01:49;;;;;;;;;;;;;;;5.11;72.46;99985.06;4913256;29;20025;-62
2023/02/14 10:04:14;;;;;;;;;;;;;;;5.14;72.04;99981.53;4915962;29;19979;-62
2023/02/14 10:06:50;;;;;;;;;;;;;;;5.17;71.65;99982.34;4916132;29;19919;-62
2023/02/14 10:09:25;;;;;;;;;;;;;;;5.19;71.51;99983.16;4915624;29;19969;-62
2023/02/14 10:11:50;;;;;;;;;;;;;;;5.23;71.83;99986.59;4913524;29;19919;-63
2023/02/14 10:14:26;;;;;;;;;;;;;;;5.24;71.91;99981.34;4915374;29;19930;-61
2023/02/14 10:16:58;;;;;;;;;;;;;;;5.30;71.80;99987.31;4914434;29;19926;-63
2023/02/14 10:19:39;;;;;;;;;;;;;;;5.34;71.47;99987.22;4916331;29;19919;-60
2023/02/14 10:22:09;;;;;;;;;;;;;;;5.35;71.13;99981.13;4912828;29;19923;-59
2023/02/14 10:24:35;;;;;;;;;;;;;;;5.37;70.96;99984.56;4916378;29;20030;-60
2023/02/14 10:27:11;;;;;;;;;;;;;;;5.40;71.04;99984.53;4915337;29;20376;-60
2023/02/14 10:29:36;;;;;;;;;;;;;;;5.44;70.79;99980.97;4914659;29;19915;-59
2023/02/14 10:32:02;;;;;;;;;;;;;;;5.47;70.86;99975.72;4911289;29;20025;-61
2023/02/14 10:34:38;;;;;;;;;;;;;;;5.53;70.41;99972.09;4913559;29;20013;-60
2023/02/14 10:37:24;;;;;;;;;;;;;;;5.50;70.36;99979.13;4915120;29;20418;-60
2023/02/14 10:40:19;;;;;;;;;;;;;;;5.50;70.43;99974.75;4915002;29;19919;-60
2023/02/14 10:43:02;;;;;;;;;;;;;;;5.52;70.13;99972.16;4894054;29;19923;-58
2023/02/14 10:45:31;;;;;;;;;;;;;;;5.51;70.23;99970.44;4894605;29;19919;-64
2023/02/14 10:48:17;;;;;;;;;;;;;;;5.55;70.49;99969.50;4878462;29;19975;-63
2023/02/14 10:50:42;;;;;;;;;;;;;;;5.55;70.22;99962.53;4891263;29;20273;-61
2023/02/14 10:53:10;;;;;;;;;;;;;;;5.58;70.00;99956.41;4894042;29;19927;-61
2023/02/14 10:55:38;;;;;;;;;;;;;;;5.64;70.31;99958.88;4893527;29;20323;-62
2023/02/14 10:58:04;;;;;;;;;;;;;;;5.67;70.19;99961.41;4894646;29;19927;-62
2023/02/14 11:00:30;;;;;;;;;;;;;;;5.71;70.31;99960.44;4879562;29;19916;-62
2023/02/14 11:02:56;;;;;;;;;;;;;;;5.70;69.51;99956.16;4877963;29;19988;-63
2023/02/14 11:05:24;;;;;;;;;;;;;;;5.72;69.74;99954.38;4877395;29;19923;-61
2023/02/14 11:07:49;;;;;;;;;;;;;;;5.64;69.35;99958.88;4894149;29;19915;-61
2023/02/14 11:10:14;;;;;;;;;;;;;;;5.64;69.50;99951.94;4894475;29;19926;-61
2023/02/14 11:12:39;;;;;;;;;;;;;;;5.68;70.30;99952.75;4878350;29;20017;-61
2023/02/14 11:15:14;;;;;;;;;;;;;;;5.71;69.83;99943.13;4892267;29;20375;-61
2023/02/14 11:17:39;;;;;;;;;;;;;;;5.78;69.93;99945.56;4894536;29;20004;-61
2023/02/14 11:20:21;;;;;;;;;;;;;;;5.81;69.81;99948.97;4896982;29;19951;-60
2023/02/14 11:22:46;;;;;;;;;;;;;;;5.85;69.25;99945.44;4904011;29;19919;-60
2023/02/14 11:25:21;;;;;;;;;;;;;;;5.92;69.65;99934.00;4912530;29;19926;-60
2023/02/14 11:27:49;;;;;;;;;;;;;;;5.98;69.08;99932.16;4911626;29;19919;-61
2023/02/14 11:30:23;;;;;;;;;;;;;;;6.02;68.69;99929.47;4909148;29;19923;-61
2023/02/14 11:32:53;;;;;;;;;;;;;;;6.04;68.40;99929.41;4910897;29;19923;-60
2023/02/14 11:35:19;;;;;;;;;;;;;;;6.08;68.50;99925.84;4909758;29;19930;-60
2023/02/14 11:37:50;;;;;;;;;;;;;;;6.13;68.32;99929.22;4907644;29;19927;-61
2023/02/14 11:40:25;;;;;;;;;;;;;;;6.20;68.66;99922.97;4904777;29;20506;-59
2023/02/14 11:42:50;;;;;;;;;;;;;;;6.29;68.59;99919.28;4909697;29;20391;-61
2023/02/14 11:45:44;;;;;;;;;;;;;;;6.34;68.15;99914.81;4909901;29;19974;-59
2023/02/14 11:48:25;;;;;;;;;;;;;;;6.37;67.72;99915.59;4872272;29;19991;-59
2023/02/14 11:50:54;;;;;;;;;;;;;;;6.43;68.12;99917.19;4870900;29;19919;-60
2023/02/14 11:53:20;;;;;;;;;;;;;;;6.48;67.45;99909.28;4877238;29;19979;-61
2023/02/14 11:55:45;;;;;;;;;;;;;;;6.51;67.59;99907.44;4873878;29;19919;-60
2023/02/14 11:58:10;;;;;;;;;;;;;;;6.54;66.88;99902.16;4858841;29;19920;-60
2023/02/14 12:00:36;;;;;;;;;;;;;;;6.59;66.74;99902.03;4861340;29;19938;-60
2023/02/14 12:03:03;;;;;;;;;;;;;;;6.65;66.39;99909.69;4877246;29;19919;-60
2023/02/14 12:05:31;;;;;;;;;;;;;;;6.70;66.15;99901.75;4856991;29;20490;-59
2023/02/14 12:07:57;;;;;;;;;;;;;;;6.55;65.89;99895.19;4872649;29;19920;-60
2023/02/14 12:10:26;;;;;;;;;;;;;;;6.57;66.14;99895.97;4873622;29;19920;-60
2023/02/14 12:13:07;;;;;;;;;;;;;;;6.66;66.35;99890.53;4877127;29;20289;-62
2023/02/14 12:15:36;;;;;;;;;;;;;;;6.73;65.98;99881.66;4877506;29;20404;-62
2023/02/14 12:18:20;;;;;;;;;;;;;;;6.80;65.93;99878.00;4874310;29;19919;-62
2023/02/14 12:20:57;;;;;;;;;;;;;;;6.85;65.72;99876.13;4868749;29;19920;-61
2023/02/14 12:23:42;;;;;;;;;;;;;;;6.90;65.68;99876.84;4878163;29;19920;-62
2023/02/14 12:26:11;;;;;;;;;;;;;;;6.95;64.79;99868.03;4915365;29;19926;-62
2023/02/14 12:28:38;;;;;;;;;;;;;;;7.01;65.55;99857.44;4911776;29;20462;-62
2023/02/14 12:31:08;;;;;;;;;;;;;;;7.07;65.25;99854.66;4915244;29;19923;-62
2023/02/14 12:33:33;;;;;;;;;;;;;;;7.12;65.13;99852.78;4918257;29;19919;-63
2023/02/14 12:36:09;;;;;;;;;;;;;;;7.15;64.56;99850.06;4917493;29;19986;-63
2023/02/14 12:38:53;;;;;;;;;;;;;;;7.23;64.23;99852.50;4929342;29;19923;-63
2023/02/14 12:41:18;;;;;;;;;;;;;;;7.23;63.23;99837.69;4915834;29;19923;-63
2023/02/14 12:43:51;;;;;;;;;;;;;;;7.22;63.60;99843.78;4915750;29;20315;-64
2023/02/14 12:46:20;;;;;;;;;;;;;;;7.31;63.38;99838.31;4909536;29;19919;-63
2023/02/14 12:49:04;;;;;;;;;;;;;;;7.48;62.98;99834.34;4921438;29;20104;-62
2023/02/14 12:51:49;;;;;;;;;;;;;;;7.55;62.87;99838.47;4913664;29;20280;-64
2023/02/14 12:54:33;;;;;;;;;;;;;;;7.53;61.94;99829.81;4914886;29;19927;-62
2023/02/14 12:56:58;;;;;;;;;;;;;;;7.54;62.41;99826.34;4914240;29;20004;-63
2023/02/14 12:59:32;;;;;;;;;;;;;;;7.45;62.01;99813.56;4916142;29;20402;-62
2023/02/14 13:02:16;;;;;;;;;;;;;;;7.46;61.67;99820.47;4912930;29;19958;-63
2023/02/14 13:04:47;;;;;;;;;;;;;;;7.46;63.17;99820.47;4910299;29;19919;-62
2023/02/14 13:07:12;;;;;;;;;;;;;;;7.48;62.40;99813.47;4910644;29;19919;-62
2023/02/14 13:09:57;;;;;;;;;;;;;;;7.51;62.43;99818.59;4913246;29;19919;-62
2023/02/14 13:12:41;;;;;;;;;;;;;;;7.54;63.54;99821.13;4912655;29;19955;-63
2023/02/14 13:15:09;;;;;;;;;;;;;;;7.61;62.95;99822.63;4912427;29;20009;-63
2023/02/14 13:17:43;;;;;;;;;;;;;;;7.65;62.34;99824.25;4925712;29;20361;-63
2023/02/14 13:20:23;;;;;;;;;;;;;;;7.68;62.66;99813.72;4913541;29;20074;-63
2023/02/14 13:22:48;;;;;;;;;;;;;;;7.71;62.29;99808.38;4897032;29;19926;-64
2023/02/14 13:25:23;;;;;;;;;;;;;;;7.68;62.46;99812.84;4914959;29;19919;-63
2023/02/14 13:27:48;;;;;;;;;;;;;;;7.68;62.32;99808.47;4914292;29;20058;-63
2023/02/14 13:30:18;;;;;;;;;;;;;;;7.69;62.61;99809.34;4916195;29;20006;-64
2023/02/14 13:32:44;;;;;;;;;;;;;;;7.61;61.98;99797.38;4914811;29;19919;-63
2023/02/14 13:35:13;;;;;;;;;;;;;;;7.64;61.76;99801.66;4911999;29;20406;-64
2023/02/14 13:37:39;;;;;;;;;;;;;;;7.68;62.27;99792.81;4913848;29;19969;-63
2023/02/14 13:40:05;;;;;;;;;;;;;;;7.74;62.81;99790.00;4912363;29;20425;-65
2023/02/14 13:42:45;;;;;;;;;;;;;;;7.75;62.40;99786.50;4911920;29;19927;-63
2023/02/14 13:45:33;;;;;;;;;;;;;;;7.77;62.46;99783.81;4912482;29;19922;-62
2023/02/14 13:48:01;;;;;;;;;;;;;;;7.76;62.19;99780.34;4906946;29;19923;-64
2023/02/14 13:50:27;;;;;;;;;;;;;;;7.74;61.55;99784.78;4915763;29;19919;-64
2023/02/14 13:52:53;;;;;;;;;;;;;;;7.75;61.75;99783.03;4920656;29;20391;-65
2023/02/14 13:55:22;;;;;;;;;;;;;;;7.72;62.46;99783.97;4914149;29;19923;-64
2023/02/14 13:58:06;;;;;;;;;;;;;;;7.70;61.12;99775.31;4912054;29;19915;-64
2023/02/14 14:00:36;;;;;;;;;;;;;;;7.69;60.93;99776.22;4912828;29;19990;-64
2023/02/14 14:03:01;;;;;;;;;;;;;;;7.64;62.04;99780.75;4913360;29;19926;-64
2023/02/14 14:05:29;;;;;;;;;;;;;;;7.65;61.83;99779.84;4911904;29;19926;-64
2023/02/14 14:08:13;;;;;;;;;;;;;;;7.68;61.63;99777.16;4913471;29;19923;-64
2023/02/14 14:10:54;;;;;;;;;;;;;;;7.72;61.75;99781.34;4916409;29;19919;-63
2023/02/14 14:13:38;;;;;;;;;;;;;;;7.75;62.13;99781.25;4910375;29;19923;-63
2023/02/14 14:16:22;;;;;;;;;;;;;;;7.77;62.28;99774.22;4913402;29;19919;-62
2023/02/14 14:18:47;;;;;;;;;;;;;;;7.87;62.11;99769.56;4912896;29;19915;-62
2023/02/14 14:21:45;;;;;;;;;;;;;;;7.93;62.01;99768.50;4914375;29;19934;-62
2023/02/14 14:24:18;;;;;;;;;;;;;;;7.97;60.67;99767.50;4894139;29;20339;-63
2023/02/14 14:26:46;;;;;;;;;;;;;;;8.03;60.85;99769.91;4913040;29;20550;-63
2023/02/14 14:29:22;;;;;;;;;;;;;;;8.13;60.76;99771.31;4912344;29;20407;-63
2023/02/14 14:31:50;;;;;;;;;;;;;;;8.26;60.23;99770.00;4907557;29;19925;-63
2023/02/14 14:34:16;;;;;;;;;;;;;;;8.41;59.74;99773.88;4913800;29;19927;-64
2023/02/14 14:36:42;;;;;;;;;;;;;;;8.61;59.55;99767.94;4912479;29;19922;-64
2023/02/14 14:39:08;;;;;;;;;;;;;;;8.74;59.38;99770.94;4913192;29;20486;-63
2023/02/14 14:41:33;;;;;;;;;;;;;;;8.85;58.65;99762.72;4912435;29;19919;-63
2023/02/14 14:43:58;;;;;;;;;;;;;;;8.89;58.99;99765.16;4912535;29;19979;-63
2023/02/14 14:46:23;;;;;;;;;;;;;;;8.98;57.79;99763.97;4913054;29;20013;-64
2023/02/14 14:48:50;;;;;;;;;;;;;;;8.95;57.42;99761.50;4912991;29;19960;-64
2023/02/14 14:51:18;;;;;;;;;;;;;;;8.90;58.29;99755.56;4905873;29;19965;-64
2023/02/14 14:53:44;;;;;;;;;;;;;;;8.83;58.05;99754.06;4914492;29;19926;-63
2023/02/14 14:56:11;;;;;;;;;;;;;;;8.69;58.56;99762.44;4910855;29;19934;-63
2023/02/14 14:58:37;;;;;;;;;;;;;;;8.53;58.45;99759.50;4913659;29;20565;-62
2023/02/14 15:01:03;;;;;;;;;;;;;;;8.40;59.29;99763.47;4913554;29;20383;-63
2023/02/14 15:03:28;;;;;;;;;;;;;;;8.37;58.83;99759.16;4913647;29;19970;-63
2023/02/14 15:06:04;;;;;;;;;;;;;;;8.27;59.33;99756.00;4911078;29;19974;-62
2023/02/14 15:08:30;;;;;;;;;;;;;;;8.20;59.82;99754.53;4912357;29;19919;-62
2023/02/14 15:11:00;;;;;;;;;;;;;;;8.19;60.08;99752.81;4909997;29;19919;-62
2023/02/14 15:13:53;;;;;;;;;;;;;;;8.74;58.21;99744.78;4897815;29;20548;-62
2023/02/14 15:16:19;;;;;;;;;;;;;;;9.46;71.20;99747.28;4912077;29;20410;-63
2023/02/14 15:18:45;;;;;;;;;;;;;;;10.43;62.62;99734.53;4909879;29;19946;-63
2023/02/14 15:21:10;;;;;;;;;;;;;;;11.06;58.70;99736.13;4926330;29;20005;-63
2023/02/14 15:23:36;;;;;;;;;;;;;;;11.41;55.76;99723.94;4909885;29;19927;-63
2023/02/14 15:26:01;;;;;;;;;;;;;;;11.73;53.77;99721.53;4913287;29;20023;-63
2023/02/14 15:28:30;;;;;;;;;;;;;;;11.27;51.40;99723.75;4915029;29;20552;-63
2023/02/14 15:31:02;;;;;;;;;;;;;;;10.81;51.65;99718.88;4911551;29;19993;-63
2023/02/14 15:33:27;;;;;;;;;;;;;;;10.51;52.16;99721.09;4913387;29;19991;-63
2023/02/14 15:35:53;;;;;;;;;;;;;;;10.26;53.00;99716.06;4911900;29;19923;-62
2023/02/14 15:38:18;;;;;;;;;;;;;;;10.04;53.96;99720.47;4912568;29;19923;-65
2023/02/14 15:40:43;;;;;;;;;;;;;;;9.81;54.45;99713.59;4915819;29;20018;-62
2023/02/14 15:43:18;;;;;;;;;;;;;;;9.58;54.89;99707.53;4914135;29;20018;-62
2023/02/14 15:45:46;;;;;;;;;;;;;;;9.47;55.49;99701.88;4916066;29;19926;-62
2023/02/14 15:48:20;;;;;;;;;;;;;;;9.36;55.88;99709.28;4916327;29;20406;-62
2023/02/14 15:50:46;;;;;;;;;;;;;;;9.17;56.20;99698.69;4916027;29;19963;-62
2023/02/14 15:53:33;;;;;;;;;;;;;;;9.01;56.87;99703.66;4908442;29;19919;-64
2023/02/14 15:56:09;;;;;;;;;;;;;;;8.87;57.47;99703.34;4914377;29;20014;-64
2023/02/14 15:58:35;;;;;;;;;;;;;;;8.74;57.96;99698.56;4916320;29;19919;-64
2023/02/14 16:01:00;;;;;;;;;;;;;;;8.63;57.81;99711.19;4916421;29;19926;-64
2023/02/14 16:03:26;;;;;;;;;;;;;;;8.46;58.20;99708.31;4916930;29;20486;-64
2023/02/14 16:05:51;;;;;;;;;;;;;;;8.26;59.00;99709.88;4915571;29;20367;-64
2023/02/14 16:08:28;;;;;;;;;;;;;;;8.04;59.40;99707.13;4913360;29;20319;-62
2023/02/14 16:10:57;;;;;;;;;;;;;;;7.80;59.96;99714.03;4916021;29;19919;-63
2023/02/14 16:13:27;;;;;;;;;;;;;;;7.53;60.53;99710.56;4915880;29;19930;-61
2023/02/14 16:15:57;;;;;;;;;;;;;;;7.34;61.58;99715.53;4913889;29;20371;-61
2023/02/14 16:18:31;;;;;;;;;;;;;;;7.14;61.76;99717.91;4915271;29;19920;-61
2023/02/14 16:21:08;;;;;;;;;;;;;;;6.89;63.07;99717.78;4903310;29;19962;-61
2023/02/14 16:23:33;;;;;;;;;;;;;;;6.69;62.85;99714.91;4917715;29;19919;-61
2023/02/14 16:25:59;;;;;;;;;;;;;;;6.50;64.15;99719.78;4908311;29;19922;-61
2023/02/14 16:28:27;;;;;;;;;;;;;;;6.32;64.86;99727.19;4913924;29;20360;-61
2023/02/14 16:30:53;;;;;;;;;;;;;;;6.12;65.04;99726.88;4909909;29;20288;-61
2023/02/14 16:33:19;;;;;;;;;;;;;;;5.96;65.83;99728.19;4915793;29;20017;-61
2023/02/14 16:35:45;;;;;;;;;;;;;;;5.80;66.18;99733.72;4899173;29;19923;-66
2023/02/14 16:38:15;;;;;;;;;;;;;;;5.69;66.93;99733.16;4916311;29;19919;-63
2023/02/14 16:40:41;;;;;;;;;;;;;;;5.52;67.47;99732.72;4910019;29;19971;-63
2023/02/14 16:43:08;;;;;;;;;;;;;;;5.39;68.22;99732.97;4915811;29;19919;-63
2023/02/14 16:45:33;;;;;;;;;;;;;;;5.27;68.46;99738.47;4899525;29;19923;-63
2023/02/14 16:47:58;;;;;;;;;;;;;;;5.11;68.95;99737.09;4915465;29;19938;-62
2023/02/14 16:50:25;;;;;;;;;;;;;;;5.00;69.21;99735.59;4915854;29;19919;-62
2023/02/14 16:52:50;;;;;;;;;;;;;;;4.91;69.75;99734.94;4914648;29;19926;-63
2023/02/14 16:55:15;;;;;;;;;;;;;;;4.80;69.99;99729.94;4915380;29;19923;-63
2023/02/14 16:57:41;;;;;;;;;;;;;;;4.71;70.79;99732.72;4915792;29;19925;-63
2023/02/14 17:00:07;;;;;;;;;;;;;;;4.60;70.25;99745.09;4913415;29;19934;-64
2023/02/14 17:02:32;;;;;;;;;;;;;;;4.48;70.69;99741.84;4914975;29;19923;-63
2023/02/14 17:04:58;;;;;;;;;;;;;;;4.38;71.12;99739.47;4919641;29;19941;-63
2023/02/14 17:07:23;;;;;;;;;;;;;;;4.31;71.76;99743.91;4914488;29;19919;-63
2023/02/14 17:09:49;;;;;;;;;;;;;;;4.22;71.82;99737.13;4915215;29;19919;-63
2023/02/14 17:12:20;;;;;;;;;;;;;;;4.16;72.39;99736.41;4913464;29;19990;-61
2023/02/14 17:14:47;;;;;;;;;;;;;;;4.03;71.30;99741.81;4914620;29;20015;-61
2023/02/14 17:17:13;;;;;;;;;;;;;;;4.32;82.68;99753.41;4927669;29;19919;-62
2023/02/14 17:19:38;;;;;;;;;;;;;;;4.99;80.05;99753.84;4910538;29;19925;-61
2023/02/14 17:22:03;;;;;;;;;;;;;;;4.89;71.25;99742.78;4926833;29;20053;-60
2023/02/14 17:24:29;;;;;;;;;;;;;;;4.74;70.28;99743.91;4914749;29;19919;-65
2023/02/14 17:26:54;;;;;;;;;;;;;;;4.61;70.42;99746.78;4914611;29;19919;-64
2023/02/14 17:29:19;;;;;;;;;;;;;;;4.46;70.71;99748.81;4916488;29;19919;-62
2023/02/14 17:31:44;;;;;;;;;;;;;;;4.34;70.85;99748.22;4910964;29;19991;-62
2023/02/14 17:34:10;;;;;;;;;;;;;;;4.32;72.85;99749.97;4914029;29;19923;-61
2023/02/14 17:36:36;;;;;;;;;;;;;;;4.21;73.05;99752.78;4912462;29;19982;-62
2023/02/14 17:39:02;;;;;;;;;;;;;;;4.13;73.62;99746.84;4913535;29;20359;-62
2023/02/14 17:41:28;;;;;;;;;;;;;;;4.01;73.26;99751.38;4913941;29;19919;-62
2023/02/14 17:43:53;;;;;;;;;;;;;;;3.98;73.32;99747.97;4914339;29;19942;-62
2023/02/14 17:46:19;;;;;;;;;;;;;;;3.96;73.39;99736.78;4911946;29;19923;-62
2023/02/14 17:48:44;;;;;;;;;;;;;;;3.94;74.27;99741.13;4916403;29;19915;-62
2023/02/14 17:51:09;;;;;;;;;;;;;;;4.01;77.65;99740.97;4911227;29;19960;-62
2023/02/14 17:53:34;;;;;;;;;;;;;;;3.96;74.09;99739.38;4914398;29;19970;-62
2023/02/14 17:56:09;;;;;;;;;;;;;;;3.81;71.77;99743.06;4912758;29;19928;-62
2023/02/14 17:58:35;;;;;;;;;;;;;;;3.64;71.82;99730.34;4913300;29;20435;-62
2023/02/14 18:01:07;;;;;;;;;;;;;;;3.51;72.17;99729.72;4909482;29;20018;-62
2023/02/14 18:03:32;;;;;;;;;;;;;;;3.43;72.12;99731.56;4912970;29;19923;-61
2023/02/14 18:05:58;;;;;;;;;;;;;;;3.33;72.43;99732.56;4914279;29;19915;-62
2023/02/14 18:08:25;;;;;;;;;;;;;;;3.24;72.91;99741.38;4911841;29;19970;-62
2023/02/14 18:10:51;;;;;;;;;;;;;;;3.18;73.11;99735.41;4911103;29;20277;-61
2023/02/14 18:13:16;;;;;;;;;;;;;;;3.18;72.17;99733.66;4911394;29;19967;-61
2023/02/14 18:15:41;;;;;;;;;;;;;;;3.15;73.15;99741.47;4912546;29;19924;-61
2023/02/14 18:18:06;;;;;;;;;;;;;;;3.16;73.65;99735.41;4913180;29;20809;-61
2023/02/14 18:20:32;;;;;;;;;;;;;;;3.13;74.19;99737.19;4912091;29;20545;-61
2023/02/14 18:22:57;;;;;;;;;;;;;;;3.17;76.04;99741.47;4912198;29;20446;-61
2023/02/14 18:25:22;;;;;;;;;;;;;;;3.09;74.54;99739.81;4913864;29;20716;-61
2023/02/14 18:27:47;;;;;;;;;;;;;;;3.02;73.78;99738.19;4912854;29;19954;-61
2023/02/14 18:30:13;;;;;;;;;;;;;;;2.97;74.36;99740.00;4905731;29;19950;-62
2023/02/14 18:32:38;;;;;;;;;;;;;;;2.86;73.68;99741.88;4907851;29;20128;-62
2023/02/14 18:35:03;;;;;;;;;;;;;;;2.79;73.12;99727.28;4911921;29;20391;-63
2023/02/14 18:37:28;;;;;;;;;;;;;;;2.75;73.32;99738.56;4913058;29;20381;-61
2023/02/14 18:39:53;;;;;;;;;;;;;;;2.71;73.50;99729.09;4901264;29;20444;-60
2023/02/14 18:42:19;;;;;;;;;;;;;;;2.70;73.99;99745.53;4911749;29;20403;-61
2023/02/14 18:44:44;;;;;;;;;;;;;;;2.76;73.97;99743.72;4912828;29;20418;-61
2023/02/14 18:47:09;;;;;;;;;;;;;;;2.83;75.82;99740.19;4913691;29;20626;-62
2023/02/14 18:49:34;;;;;;;;;;;;;;;2.89;76.53;99756.53;4910056;29;20440;-61
2023/02/14 18:52:00;;;;;;;;;;;;;;;2.90;76.80;99746.16;4911620;29;19919;-61
2023/02/14 18:54:25;;;;;;;;;;;;;;;2.97;77.50;99746.94;4911623;29;19923;-62
2023/02/14 18:56:50;;;;;;;;;;;;;;;3.04;78.45;99746.81;4913537;29;19926;-62
2023/02/14 18:59:16;;;;;;;;;;;;;;;3.08;78.09;99742.44;4913124;29;19994;-61
2023/02/14 19:01:42;;;;;;;;;;;;;;;3.17;78.82;99733.69;4911933;29;19926;-61
2023/02/14 19:04:07;;;;;;;;;;;;;;;3.19;78.12;99731.94;4910989;29;19927;-62
2023/02/14 19:06:33;;;;;;;;;;;;;;;3.23;78.29;99729.25;4912056;29;19920;-61
2023/02/14 19:08:58;;;;;;;;;;;;;;;3.28;79.29;99731.81;4910756;29;19975;-61
2023/02/14 19:11:26;;;;;;;;;;;;;;;3.32;79.04;99730.88;4911820;29;20395;-61
2023/02/14 19:13:52;;;;;;;;;;;;;;;3.40;79.38;99728.16;4911611;29;19923;-61
2023/02/14 19:16:18;;;;;;;;;;;;;;;3.48;80.17;99723.72;4909382;29;19919;-61
2023/02/14 19:18:43;;;;;;;;;;;;;;;3.55;79.56;99723.59;4907370;29;19968;-61
2023/02/14 19:21:15;;;;;;;;;;;;;;;3.59;79.85;99719.22;4911517;29;19919;-61
2023/02/14 19:23:40;;;;;;;;;;;;;;;3.63;80.27;99718.28;4909640;29;20580;-62
2023/02/14 19:26:09;;;;;;;;;;;;;;;3.65;79.46;99721.72;4911954;29;19919;-60
2023/02/14 19:28:34;;;;;;;;;;;;;;;3.69;79.49;99722.53;4908830;29;19930;-58
2023/02/14 19:30:59;;;;;;;;;;;;;;;3.72;79.92;99719.88;4911052;29;19931;-61
2023/02/14 19:33:24;;;;;;;;;;;;;;;3.72;80.16;99717.28;4913218;29;19916;-60
2023/02/14 19:35:57;;;;;;;;;;;;;;;3.77;80.57;99723.25;4910358;29;19934;-60
2023/02/14 19:38:22;;;;;;;;;;;;;;;3.76;78.96;99724.97;4905029;29;19942;-59
2023/02/14 19:40:48;;;;;;;;;;;;;;;3.79;79.59;99719.75;4911381;29;20379;-60
2023/02/14 19:43:13;;;;;;;;;;;;;;;3.83;78.85;99717.09;4911047;29;20399;-60
2023/02/14 19:45:38;;;;;;;;;;;;;;;3.82;79.80;99721.44;4912810;29;20383;-60
2023/02/14 19:48:04;;;;;;;;;;;;;;;3.86;79.80;99710.13;4911011;29;20367;-61
2023/02/14 19:50:29;;;;;;;;;;;;;;;3.90;79.69;99713.50;4908443;29;20307;-60
2023/02/14 19:52:54;;;;;;;;;;;;;;;3.87;79.91;99709.22;4913341;29;20014;-60
2023/02/14 19:55:20;;;;;;;;;;;;;;;3.91;79.63;99708.28;4910206;29;20017;-60
2023/02/14 19:57:46;;;;;;;;;;;;;;;3.87;78.54;99708.38;4911162;29;19965;-59
2023/02/14 20:00:15;;;;;;;;;;;;;;;3.86;78.89;99709.25;4894216;29;20404;-60
2023/02/14 20:02:45;;;;;;;;;;;;;;;3.87;79.25;99716.16;4911388;29;19915;-61
2023/02/14 20:05:10;;;;;;;;;;;;;;;3.89;79.46;99714.38;4910261;29;20410;-58
2023/02/14 20:07:35;;;;;;;;;;;;;;;3.87;78.83;99711.81;4911049;29;19927;-61
2023/02/14 20:10:00;;;;;;;;;;;;;;;3.90;79.23;99708.31;4912804;29;19919;-60
2023/02/14 20:12:25;;;;;;;;;;;;;;;3.92;79.23;99699.63;4910079;29;19952;-60
2023/02/14 20:14:52;;;;;;;;;;;;;;;3.86;78.70;99702.31;4914726;29;19927;-61
2023/02/14 20:17:18;;;;;;;;;;;;;;;3.87;78.78;99701.44;4914842;29;20327;-60
2023/02/14 20:19:43;;;;;;;;;;;;;;;3.91;79.25;99703.09;4914938;29;20034;-60
2023/02/14 20:22:08;;;;;;;;;;;;;;;3.89;79.21;99704.88;4915105;29;19922;-60
2023/02/14 20:24:34;;;;;;;;;;;;;;;3.90;79.09;99700.53;4915611;29;20371;-60
2023/02/14 20:26:59;;;;;;;;;;;;;;;3.87;78.93;99701.44;4916341;29;20387;-61
2023/02/14 20:29:25;;;;;;;;;;;;;;;3.89;79.25;99699.69;4909897;29;19923;-61
2023/02/14 20:31:51;;;;;;;;;;;;;;;3.99;80.67;99698.63;4919165;29;20398;-61